createdAt,value
2019-05-23T00:00:27.635Z,6.70
2019-05-23T00:01:27.618Z,6.90
2019-05-23T00:02:27.624Z,8.50
2019-05-23T00:03:27.604Z,7.20
2019-05-23T00:04:27.596Z,8.90
2019-05-23T00:05:27.573Z,7.90
2019-05-23T00:06:27.567Z,7.30
2019-05-23T00:07:27.563Z,6.20
2019-05-23T00:08:27.919Z,8.50
2019-05-23T00:09:27.611Z,8.00
2019-05-23T00:10:27.524Z,7.80
2019-05-23T00:11:27.513Z,6.40
2019-05-23T00:12:27.502Z,7.20
2019-05-23T00:13:27.501Z,7.70
2019-05-23T00:14:27.473Z,11.40
2019-05-23T00:15:27.462Z,8.30
2019-05-23T00:16:27.467Z,7.10
2019-05-23T00:17:27.461Z,6.70
2019-05-23T00:18:27.443Z,7.50
2019-05-23T00:19:27.421Z,8.60
2019-05-23T00:20:27.416Z,7.40
2019-05-23T00:21:27.401Z,8.40
2019-05-23T00:22:27.391Z,10.00
2019-05-23T00:23:27.389Z,8.60
2019-05-23T00:24:27.371Z,7.30
2019-05-23T00:25:27.380Z,9.00
2019-05-23T00:26:27.340Z,5.90
2019-05-23T00:27:27.360Z,7.40
2019-05-23T00:28:27.339Z,8.50
2019-05-23T00:29:27.309Z,6.60
2019-05-23T00:30:27.299Z,8.10
2019-05-23T00:31:27.290Z,8.90
2019-05-23T00:32:27.279Z,8.90
2019-05-23T00:33:27.299Z,9.30
2019-05-23T00:34:27.269Z,9.10
2019-05-23T00:35:27.248Z,9.60
2019-05-23T00:36:27.239Z,9.00
2019-05-23T00:37:27.228Z,8.70
2019-05-23T00:38:27.208Z,7.90
2019-05-23T00:39:27.216Z,7.50
2019-05-23T00:40:27.188Z,7.70
2019-05-23T00:41:27.198Z,7.80
2019-05-23T00:42:27.168Z,9.80
2019-05-23T00:43:27.158Z,10.00
2019-05-23T00:44:27.160Z,8.10
2019-05-23T00:45:27.150Z,9.10
2019-05-23T00:46:27.126Z,8.50
2019-05-23T00:47:27.119Z,7.50
2019-05-23T00:48:27.106Z,8.60
2019-05-23T00:49:27.119Z,8.70
2019-05-23T00:50:27.086Z,8.80
2019-05-23T00:51:27.075Z,8.20
2019-05-23T00:52:27.059Z,11.90
2019-05-23T00:53:27.045Z,10.00
2019-05-23T00:54:27.050Z,9.40
2019-05-23T00:55:27.034Z,6.80
2019-05-23T00:56:27.015Z,6.70
2019-05-23T00:57:27.007Z,10.10
2019-05-23T00:58:26.994Z,9.10
2019-05-23T00:59:27.931Z,7.10
2019-05-23T01:00:26.977Z,9.30
2019-05-23T01:01:27.023Z,8.10
2019-05-23T01:02:26.953Z,6.90
2019-05-23T01:03:26.942Z,8.80
2019-05-23T01:04:26.943Z,7.40
2019-05-23T01:05:26.913Z,6.90
2019-05-23T01:06:26.903Z,8.90
2019-05-23T01:07:26.903Z,6.70
2019-05-23T01:08:26.893Z,7.80
2019-05-23T01:09:26.883Z,6.60
2019-05-23T01:10:26.872Z,7.00
2019-05-23T01:11:26.851Z,6.50
2019-05-23T01:12:26.841Z,8.30
2019-05-23T01:13:26.832Z,7.00
2019-05-23T01:14:26.866Z,6.30
2019-05-23T01:15:26.812Z,6.90
2019-05-23T01:16:26.791Z,6.80
2019-05-23T01:17:26.791Z,7.40
2019-05-23T01:18:26.785Z,9.00
2019-05-23T01:19:26.796Z,7.50
2019-05-23T01:20:26.751Z,7.10
2019-05-23T01:21:26.741Z,7.20
2019-05-23T01:22:26.730Z,8.70
2019-05-23T01:23:26.721Z,8.10
2019-05-23T01:24:26.720Z,8.00
2019-05-23T01:25:26.707Z,8.70
2019-05-23T01:26:26.689Z,7.40
2019-05-23T01:27:26.680Z,7.70
2019-05-23T01:28:26.668Z,10.40
2019-05-23T01:29:36.937Z,9.20
2019-05-23T01:30:27.640Z,8.80
2019-05-23T01:31:26.629Z,9.70
2019-05-23T01:32:26.625Z,9.80
2019-05-23T01:33:26.608Z,7.20
2019-05-23T01:34:26.602Z,9.00
2019-05-23T01:35:26.597Z,9.70
2019-05-23T01:36:26.587Z,10.60
2019-05-23T01:37:26.570Z,8.90
2019-05-23T01:38:26.573Z,9.10
2019-05-23T01:39:26.547Z,7.60
2019-05-23T01:40:26.537Z,9.00
2019-05-23T01:41:26.527Z,8.60
2019-05-23T01:42:26.510Z,7.80
2019-05-23T01:43:26.505Z,7.40
2019-05-23T01:44:26.496Z,8.90
2019-05-23T01:45:26.487Z,10.10
2019-05-23T01:46:26.465Z,7.90
2019-05-23T01:47:26.458Z,7.30
2019-05-23T01:48:26.446Z,10.40
2019-05-23T01:49:26.439Z,11.50
2019-05-23T01:50:26.435Z,8.00
2019-05-23T01:51:26.412Z,10.20
2019-05-23T01:52:26.396Z,11.60
2019-05-23T01:53:26.384Z,9.20
2019-05-23T01:54:26.374Z,7.20
2019-05-23T01:55:26.376Z,7.40
2019-05-23T01:56:26.354Z,9.10
2019-05-23T01:57:26.382Z,8.00
2019-05-23T01:58:26.343Z,8.10
2019-05-23T01:59:26.323Z,8.30
2019-05-23T02:00:26.323Z,7.30
2019-05-23T02:01:26.304Z,7.70
2019-05-23T02:02:26.293Z,7.90
2019-05-23T02:03:26.273Z,6.90
2019-05-23T02:04:26.262Z,8.70
2019-05-23T02:05:26.263Z,10.20
2019-05-23T02:06:26.256Z,8.80
2019-05-23T02:07:26.232Z,8.70
2019-05-23T02:08:26.222Z,9.90
2019-05-23T02:09:26.217Z,9.00
2019-05-23T02:10:26.228Z,8.80
2019-05-23T02:11:26.183Z,9.10
2019-05-23T02:12:26.180Z,6.70
2019-05-23T02:13:26.171Z,9.60
2019-05-23T02:14:26.162Z,9.20
2019-05-23T02:15:26.151Z,7.80
2019-05-23T02:16:26.140Z,10.10
2019-05-23T02:17:26.139Z,8.00
2019-05-23T02:18:26.119Z,9.70
2019-05-23T02:19:26.115Z,6.50
2019-05-23T02:20:26.100Z,9.10
2019-05-23T02:21:26.081Z,7.20
2019-05-23T02:22:26.078Z,7.50
2019-05-23T02:23:26.058Z,11.10
2019-05-23T02:24:26.048Z,8.30
2019-05-23T02:25:26.078Z,7.30
2019-05-23T02:26:26.027Z,8.70
2019-05-23T02:27:26.009Z,8.20
2019-05-23T02:28:26.014Z,8.70
2019-05-23T02:29:26.084Z,8.50
2019-05-23T02:30:35.746Z,9.50
2019-05-23T02:31:26.968Z,9.30
2019-05-23T02:32:25.962Z,9.20
2019-05-23T02:33:25.949Z,7.50
2019-05-23T02:34:25.948Z,7.10
2019-05-23T02:35:25.917Z,7.50
2019-05-23T02:36:25.916Z,8.50
2019-05-23T02:37:25.906Z,9.20
2019-05-23T02:38:25.887Z,8.70
2019-05-23T02:39:25.878Z,7.50
2019-05-23T02:40:25.865Z,7.20
2019-05-23T02:41:25.867Z,7.60
2019-05-23T02:42:25.846Z,8.10
2019-05-23T02:43:25.838Z,7.40
2019-05-23T02:44:25.827Z,7.10
2019-05-23T02:45:25.814Z,10.30
2019-05-23T02:46:25.805Z,8.60
2019-05-23T02:47:25.794Z,10.20
2019-05-23T02:48:25.782Z,7.30
2019-05-23T02:49:25.767Z,7.80
2019-05-23T02:50:25.754Z,8.00
2019-05-23T02:51:25.753Z,7.60
2019-05-23T02:52:25.733Z,8.20
2019-05-23T02:53:25.723Z,7.10
2019-05-23T02:54:25.703Z,7.80
2019-05-23T02:55:25.693Z,8.30
2019-05-23T02:56:25.693Z,7.90
2019-05-23T02:57:25.684Z,8.80
2019-05-23T02:58:25.673Z,7.80
2019-05-23T02:59:25.652Z,9.90
2019-05-23T03:00:25.642Z,8.30
2019-05-23T03:01:25.651Z,7.50
2019-05-23T03:02:25.622Z,9.10
2019-05-23T03:03:25.612Z,9.10
2019-05-23T03:04:25.615Z,8.10
2019-05-23T03:05:25.591Z,7.20
2019-05-23T03:06:25.590Z,9.40
2019-05-23T03:07:25.571Z,9.40
2019-05-23T03:08:25.557Z,7.50
2019-05-23T03:09:25.550Z,7.20
2019-05-23T03:10:25.530Z,10.20
2019-05-23T03:11:25.532Z,10.00
2019-05-23T03:12:25.541Z,8.00
2019-05-23T03:13:25.500Z,8.60
2019-05-23T03:14:25.488Z,8.90
2019-05-23T03:15:25.479Z,8.30
2019-05-23T03:16:25.483Z,9.60
2019-05-23T03:17:25.460Z,8.10
2019-05-23T03:18:25.453Z,8.40
2019-05-23T03:19:25.441Z,10.00
2019-05-23T03:20:25.427Z,9.20
2019-05-23T03:21:25.427Z,8.90
2019-05-23T03:22:25.408Z,10.60
2019-05-23T03:23:25.388Z,8.50
2019-05-23T03:24:25.387Z,9.70
2019-05-23T03:25:25.379Z,10.50
2019-05-23T03:26:25.366Z,8.00
2019-05-23T03:27:25.345Z,10.00
2019-05-23T03:28:25.338Z,8.90
2019-05-23T03:29:25.319Z,10.40
2019-05-23T03:30:25.309Z,9.00
2019-05-23T03:31:30.771Z,9.70
2019-05-23T03:32:26.317Z,7.90
2019-05-23T03:33:25.276Z,9.60
2019-05-23T03:34:25.277Z,9.20
2019-05-23T03:35:25.285Z,10.90
2019-05-23T03:36:25.254Z,11.50
2019-05-23T03:37:25.238Z,9.00
2019-05-23T03:38:25.214Z,10.60
2019-05-23T03:39:25.258Z,11.10
2019-05-23T03:40:25.204Z,11.40
2019-05-23T03:41:25.194Z,11.40
2019-05-23T03:42:25.181Z,13.20
2019-05-23T03:43:25.166Z,10.60
2019-05-23T03:44:25.153Z,13.60
2019-05-23T03:45:25.141Z,9.40
2019-05-23T03:46:25.162Z,10.10
2019-05-23T03:47:25.122Z,10.60
2019-05-23T03:48:25.137Z,10.00
2019-05-23T03:49:25.093Z,11.30
2019-05-23T03:50:25.101Z,8.30
2019-05-23T03:51:25.073Z,10.70
2019-05-23T03:52:25.082Z,9.70
2019-05-23T03:53:25.056Z,10.10
2019-05-23T03:54:25.040Z,9.70
2019-05-23T03:55:25.036Z,10.70
2019-05-23T03:56:25.102Z,10.90
2019-05-23T03:57:25.941Z,10.50
2019-05-23T03:58:25.000Z,12.50
2019-05-23T03:59:25.009Z,10.00
2019-05-23T04:00:24.981Z,10.00
2019-05-23T04:01:24.971Z,9.90
2019-05-23T04:02:24.963Z,12.20
2019-05-23T04:03:24.946Z,12.10
2019-05-23T04:04:24.929Z,13.60
2019-05-23T04:05:24.920Z,11.50
2019-05-23T04:06:24.919Z,11.70
2019-05-23T04:07:24.908Z,12.00
2019-05-23T04:08:24.912Z,11.80
2019-05-23T04:09:24.870Z,12.20
2019-05-23T04:10:24.864Z,13.10
2019-05-23T04:11:24.863Z,11.40
2019-05-23T04:12:24.847Z,13.00
2019-05-23T04:13:24.828Z,13.20
2019-05-23T04:14:24.819Z,12.20
2019-05-23T04:15:24.810Z,17.40
2019-05-23T04:16:24.799Z,12.90
2019-05-23T04:17:24.800Z,13.30
2019-05-23T04:18:24.776Z,13.20
2019-05-23T04:19:24.766Z,13.70
2019-05-23T04:20:24.747Z,11.20
2019-05-23T04:21:24.749Z,14.40
2019-05-23T04:22:24.736Z,12.60
2019-05-23T04:23:24.728Z,10.60
2019-05-23T04:24:24.715Z,13.90
2019-05-23T04:25:24.696Z,11.80
2019-05-23T04:26:24.702Z,12.00
2019-05-23T04:27:24.685Z,11.40
2019-05-23T04:28:24.665Z,11.30
2019-05-23T04:29:24.661Z,12.60
2019-05-23T04:30:24.634Z,11.90
2019-05-23T04:31:24.648Z,12.10
2019-05-23T04:32:24.628Z,10.80
2019-05-23T04:33:24.604Z,12.30
2019-05-23T04:34:24.595Z,11.80
2019-05-23T04:35:24.584Z,13.20
2019-05-23T04:36:24.605Z,11.30
2019-05-23T04:37:24.583Z,13.80
2019-05-23T04:38:24.562Z,12.60
2019-05-23T04:39:24.573Z,12.30
2019-05-23T04:40:24.533Z,14.60
2019-05-23T04:41:24.522Z,11.30
2019-05-23T04:42:24.520Z,11.50
2019-05-23T04:43:24.493Z,9.60
2019-05-23T04:44:24.490Z,12.20
2019-05-23T04:45:24.499Z,13.50
2019-05-23T04:46:24.461Z,15.90
2019-05-23T04:47:24.459Z,15.50
2019-05-23T04:48:24.456Z,16.20
2019-05-23T04:49:24.430Z,19.60
2019-05-23T04:50:24.419Z,21.50
2019-05-23T04:51:24.414Z,22.40
2019-05-23T04:52:24.409Z,20.40
2019-05-23T04:53:24.398Z,19.80
2019-05-23T04:54:24.379Z,20.30
2019-05-23T04:55:24.360Z,19.00
2019-05-23T04:56:24.352Z,16.50
2019-05-23T04:57:24.349Z,13.70
2019-05-23T04:58:24.338Z,16.40
2019-05-23T04:59:24.333Z,16.70
2019-05-23T05:00:24.308Z,16.40
2019-05-23T05:01:24.307Z,16.40
2019-05-23T05:02:26.858Z,17.80
2019-05-23T05:03:24.278Z,16.50
2019-05-23T05:04:24.285Z,16.90
2019-05-23T05:05:24.257Z,18.40
2019-05-23T05:06:24.238Z,17.20
2019-05-23T05:07:24.252Z,15.70
2019-05-23T05:08:24.236Z,16.60
2019-05-23T05:09:24.218Z,16.10
2019-05-23T05:10:24.196Z,16.50
2019-05-23T05:11:24.185Z,16.30
2019-05-23T05:12:24.195Z,14.40
2019-05-23T05:13:24.173Z,17.00
2019-05-23T05:14:24.154Z,13.40
2019-05-23T05:15:24.154Z,14.70
2019-05-23T05:16:24.135Z,12.20
2019-05-23T05:17:24.135Z,13.40
2019-05-23T05:18:24.113Z,14.10
2019-05-23T05:19:24.102Z,14.00
2019-05-23T05:20:24.095Z,13.60
2019-05-23T05:21:24.073Z,12.90
2019-05-23T05:22:24.073Z,13.50
2019-05-23T05:23:24.054Z,15.20
2019-05-23T05:24:24.043Z,13.10
2019-05-23T05:25:24.034Z,13.30
2019-05-23T05:26:24.041Z,11.90
2019-05-23T05:27:24.028Z,12.20
2019-05-23T05:28:24.011Z,12.40
2019-05-23T05:29:23.992Z,13.80
2019-05-23T05:30:23.984Z,13.40
2019-05-23T05:31:23.974Z,16.30
2019-05-23T05:32:23.984Z,15.70
2019-05-23T05:33:23.951Z,14.00
2019-05-23T05:34:23.931Z,13.70
2019-05-23T05:35:23.922Z,14.70
2019-05-23T05:36:23.918Z,12.80
2019-05-23T05:37:23.912Z,14.20
2019-05-23T05:38:23.889Z,14.50
2019-05-23T05:39:23.881Z,13.80
2019-05-23T05:40:23.870Z,16.50
2019-05-23T05:41:23.849Z,15.40
2019-05-23T05:42:23.873Z,15.90
2019-05-23T05:43:23.839Z,14.10
2019-05-23T05:44:23.860Z,16.20
2019-05-23T05:45:23.814Z,15.70
2019-05-23T05:46:23.800Z,16.20
2019-05-23T05:47:23.828Z,17.90
2019-05-23T05:48:23.786Z,14.90
2019-05-23T05:49:23.768Z,18.90
2019-05-23T05:50:23.757Z,16.50
2019-05-23T05:51:23.747Z,16.30
2019-05-23T05:52:23.738Z,17.10
2019-05-23T05:53:23.738Z,15.90
2019-05-23T05:54:23.716Z,14.60
2019-05-23T05:55:23.698Z,18.10
2019-05-23T05:56:23.696Z,18.20
2019-05-23T05:57:23.694Z,17.60
2019-05-23T05:58:23.688Z,17.40
2019-05-23T05:59:23.674Z,17.50
2019-05-23T06:00:23.657Z,16.50
2019-05-23T06:01:33.230Z,18.10
2019-05-23T06:02:24.625Z,17.40
2019-05-23T06:03:23.653Z,18.70
2019-05-23T06:04:23.605Z,18.00
2019-05-23T06:05:23.605Z,20.70
2019-05-23T06:06:23.588Z,17.70
2019-05-23T06:07:23.570Z,18.40
2019-05-23T06:08:23.825Z,18.20
2019-05-23T06:09:23.565Z,21.00
2019-05-23T06:10:23.550Z,19.00
2019-05-23T06:11:23.531Z,20.00
2019-05-23T06:12:23.533Z,16.10
2019-05-23T06:13:23.534Z,22.30
2019-05-23T06:14:23.521Z,20.00
2019-05-23T06:15:23.494Z,18.60
2019-05-23T06:16:23.474Z,19.70
2019-05-23T06:17:23.472Z,21.30
2019-05-23T06:18:23.475Z,19.20
2019-05-23T06:19:23.456Z,20.60
2019-05-23T06:20:23.432Z,20.10
2019-05-23T06:21:23.432Z,19.80
2019-05-23T06:22:23.412Z,22.00
2019-05-23T06:23:23.413Z,18.60
2019-05-23T06:24:41.430Z,20.30
2019-05-23T06:25:24.371Z,19.90
2019-05-23T06:26:23.374Z,21.30
2019-05-23T06:27:23.386Z,17.80
2019-05-23T06:28:23.386Z,17.70
2019-05-23T06:29:23.908Z,21.60
2019-05-23T06:30:23.328Z,16.60
2019-05-23T06:31:23.322Z,18.00
2019-05-23T06:32:23.319Z,16.90
2019-05-23T06:33:24.443Z,17.30
2019-05-23T06:34:23.307Z,17.30
2019-05-23T06:35:23.293Z,20.40
2019-05-23T06:36:23.269Z,19.00
2019-05-23T06:37:23.249Z,19.70
2019-05-23T06:38:23.240Z,21.70
2019-05-23T06:39:23.256Z,19.00
2019-05-23T06:40:23.219Z,22.30
2019-05-23T06:41:23.219Z,19.00
2019-05-23T06:42:23.541Z,21.80
2019-05-23T06:43:23.190Z,20.40
2019-05-23T06:44:23.202Z,20.20
2019-05-23T06:45:23.176Z,20.60
2019-05-23T06:46:23.158Z,20.30
2019-05-23T06:47:23.147Z,22.80
2019-05-23T06:48:23.142Z,21.10
2019-05-23T06:49:23.137Z,22.90
2019-05-23T06:50:23.117Z,20.10
2019-05-23T06:51:23.110Z,21.70
2019-05-23T06:52:23.097Z,25.00
2019-05-23T06:53:23.077Z,22.70
2019-05-23T06:54:23.085Z,23.80
2019-05-23T06:55:23.064Z,24.40
2019-05-23T06:56:23.047Z,23.70
2019-05-23T06:57:23.048Z,21.30
2019-05-23T06:58:23.531Z,23.90
2019-05-23T06:59:23.043Z,20.60
2019-05-23T07:00:23.015Z,21.90
2019-05-23T07:01:22.996Z,21.50
2019-05-23T07:02:22.996Z,22.00
2019-05-23T07:03:38.492Z,25.20
2019-05-23T07:04:23.983Z,25.50
2019-05-23T07:05:22.959Z,25.70
2019-05-23T07:06:22.955Z,25.00
2019-05-23T07:07:22.946Z,24.60
2019-05-23T07:08:25.251Z,25.00
2019-05-23T07:09:22.935Z,26.30
2019-05-23T07:10:22.954Z,23.00
2019-05-23T07:11:22.904Z,25.30
2019-05-23T07:12:22.893Z,25.30
2019-05-23T07:13:22.872Z,24.20
2019-05-23T07:14:22.883Z,24.70
2019-05-23T07:15:22.869Z,22.00
2019-05-23T07:16:22.855Z,23.40
2019-05-23T07:17:22.840Z,23.60
2019-05-23T07:18:22.845Z,25.30
2019-05-23T07:19:22.831Z,23.50
2019-05-23T07:20:22.814Z,24.30
2019-05-23T07:21:22.802Z,25.70
2019-05-23T07:22:22.792Z,24.50
2019-05-23T07:23:22.791Z,26.60
2019-05-23T07:24:22.812Z,25.60
2019-05-23T07:25:22.771Z,25.40
2019-05-23T07:26:22.760Z,25.10
2019-05-23T07:27:22.744Z,25.80
2019-05-23T07:28:22.730Z,24.90
2019-05-23T07:29:22.733Z,24.60
2019-05-23T07:30:22.918Z,23.80
2019-05-23T07:31:22.708Z,23.90
2019-05-23T07:32:22.708Z,22.60
2019-05-23T07:33:22.688Z,22.00
2019-05-23T07:34:22.678Z,24.10
2019-05-23T07:35:22.680Z,25.20
2019-05-23T07:36:22.658Z,22.70
2019-05-23T07:37:22.639Z,22.70
2019-05-23T07:38:22.629Z,22.80
2019-05-23T07:39:22.628Z,26.50
2019-05-23T07:40:22.645Z,22.70
2019-05-23T07:41:22.610Z,21.10
2019-05-23T07:42:22.600Z,22.60
2019-05-23T07:43:22.582Z,23.80
2019-05-23T07:44:22.577Z,24.00
2019-05-23T07:45:22.578Z,21.50
2019-05-23T07:46:22.569Z,22.70
2019-05-23T07:47:22.548Z,21.00
2019-05-23T07:48:22.538Z,21.80
2019-05-23T07:49:22.526Z,20.50
2019-05-23T07:50:22.537Z,19.10
2019-05-23T07:51:22.517Z,19.90
2019-05-23T07:52:22.502Z,21.40
2019-05-23T07:53:22.496Z,19.70
2019-05-23T07:54:22.474Z,19.60
2019-05-23T07:55:22.475Z,20.40
2019-05-23T07:56:22.476Z,19.60
2019-05-23T07:57:22.447Z,17.80
2019-05-23T07:58:22.456Z,16.70
2019-05-23T07:59:22.426Z,18.80
2019-05-23T08:00:22.436Z,20.90
2019-05-23T08:01:22.411Z,20.50
2019-05-23T08:02:25.450Z,17.70
2019-05-23T08:03:22.385Z,16.40
2019-05-23T08:04:22.857Z,16.70
2019-05-23T08:05:22.376Z,18.40
2019-05-23T08:06:22.357Z,18.70
2019-05-23T08:07:22.363Z,20.30
2019-05-23T08:08:22.333Z,18.10
2019-05-23T08:09:22.329Z,16.60
2019-05-23T08:10:33.149Z,17.20
2019-05-23T08:11:23.294Z,14.70
2019-05-23T08:12:22.293Z,16.80
2019-05-23T08:13:22.287Z,14.70
2019-05-23T08:14:22.263Z,15.70
2019-05-23T08:15:22.254Z,15.90
2019-05-23T08:16:22.254Z,17.20
2019-05-23T08:17:22.233Z,16.80
2019-05-23T08:18:22.230Z,15.10
2019-05-23T08:19:22.204Z,15.40
2019-05-23T08:20:22.194Z,16.20
2019-05-23T08:21:22.204Z,16.90
2019-05-23T08:22:22.176Z,15.10
2019-05-23T08:23:22.168Z,13.30
2019-05-23T08:24:22.154Z,14.60
2019-05-23T08:25:22.153Z,16.50
2019-05-23T08:26:22.142Z,14.70
2019-05-23T08:27:22.114Z,14.00
2019-05-23T08:28:22.106Z,14.80
2019-05-23T08:29:26.071Z,12.80
2019-05-23T08:30:22.081Z,14.80
2019-05-23T08:31:22.145Z,15.20
2019-05-23T08:32:22.060Z,14.40
2019-05-23T08:33:22.058Z,12.80
2019-05-23T08:34:40.027Z,11.90
2019-05-23T08:35:23.026Z,10.10
2019-05-23T08:36:22.025Z,12.00
2019-05-23T08:37:22.004Z,14.10
2019-05-23T08:38:22.010Z,10.30
2019-05-23T08:39:21.974Z,9.10
2019-05-23T08:40:22.005Z,11.50
2019-05-23T08:41:22.015Z,8.50
2019-05-23T08:42:21.950Z,9.20
2019-05-23T08:43:21.932Z,11.10
2019-05-23T08:44:21.920Z,12.60
2019-05-23T08:45:22.000Z,11.60
2019-05-23T08:46:21.910Z,11.60
2019-05-23T08:47:21.881Z,12.50
2019-05-23T08:48:21.870Z,11.60
2019-05-23T08:49:21.859Z,11.80
2019-05-23T08:50:21.859Z,12.30
2019-05-23T08:51:21.853Z,12.40
2019-05-23T08:52:21.830Z,13.90
2019-05-23T08:53:21.809Z,14.50
2019-05-23T08:54:21.809Z,14.10
2019-05-23T08:55:21.802Z,15.80
2019-05-23T08:56:21.799Z,16.00
2019-05-23T08:57:21.770Z,12.90
2019-05-23T08:58:21.759Z,10.30
2019-05-23T08:59:21.750Z,10.20
2019-05-23T09:00:21.748Z,10.10
2019-05-23T09:01:21.729Z,11.20
2019-05-23T09:02:21.709Z,11.60
2019-05-23T09:03:21.716Z,13.40
2019-05-23T09:04:21.695Z,10.50
2019-05-23T09:05:21.680Z,11.60
2019-05-23T09:06:21.680Z,12.50
2019-05-23T09:07:21.659Z,10.90
2019-05-23T09:08:21.648Z,13.80
2019-05-23T09:09:29.821Z,12.30
2019-05-23T09:10:22.617Z,11.90
2019-05-23T09:11:21.618Z,12.30
2019-05-23T09:12:21.599Z,13.70
2019-05-23T09:13:21.587Z,15.10
2019-05-23T09:14:21.572Z,11.60
2019-05-23T09:15:21.604Z,13.10
2019-05-23T09:16:21.578Z,13.50
2019-05-23T09:17:21.544Z,11.80
2019-05-23T09:18:21.537Z,9.60
2019-05-23T09:19:21.508Z,9.80
2019-05-23T09:20:21.497Z,12.30
2019-05-23T09:21:21.487Z,11.00
2019-05-23T09:22:21.500Z,15.10
2019-05-23T09:23:21.478Z,14.20
2019-05-23T09:24:21.457Z,11.10
2019-05-23T09:25:21.449Z,10.50
2019-05-23T09:26:21.446Z,12.80
2019-05-23T09:27:21.436Z,10.70
2019-05-23T09:28:21.406Z,12.50
2019-05-23T09:29:21.481Z,13.40
2019-05-23T09:30:21.416Z,14.00
2019-05-23T09:31:21.408Z,13.30
2019-05-23T09:32:21.375Z,14.30
2019-05-23T09:33:21.385Z,15.30
2019-05-23T09:34:21.346Z,14.40
2019-05-23T09:35:22.412Z,13.00
2019-05-23T09:36:21.346Z,11.50
2019-05-23T09:37:21.359Z,13.40
2019-05-23T09:38:21.314Z,14.40
2019-05-23T09:39:21.345Z,15.40
2019-05-23T09:40:21.336Z,14.10
2019-05-23T09:41:21.268Z,14.10
2019-05-23T09:42:21.267Z,16.00
2019-05-23T09:43:21.234Z,13.80
2019-05-23T09:44:21.227Z,12.40
2019-05-23T09:45:21.214Z,16.30
2019-05-23T09:46:21.203Z,14.50
2019-05-23T09:47:21.203Z,14.10
2019-05-23T09:48:21.175Z,12.40
2019-05-23T09:49:21.166Z,13.20
2019-05-23T09:50:21.155Z,14.70
2019-05-23T09:51:21.143Z,12.80
2019-05-23T09:52:21.142Z,11.70
2019-05-23T09:53:21.115Z,12.20
2019-05-23T09:54:21.095Z,11.30
2019-05-23T09:55:21.084Z,13.30
2019-05-23T09:56:21.083Z,12.40
2019-05-23T09:57:21.074Z,11.40
2019-05-23T09:58:21.056Z,11.80
2019-05-23T09:59:21.036Z,11.90
2019-05-23T10:00:21.027Z,13.20
2019-05-23T10:01:21.072Z,10.90
2019-05-23T10:02:21.013Z,11.60
2019-05-23T10:03:21.003Z,12.00
2019-05-23T10:04:20.983Z,11.70
2019-05-23T10:05:40.257Z,11.70
2019-05-23T10:06:21.961Z,10.50
2019-05-23T10:07:20.983Z,12.80
2019-05-23T10:08:20.932Z,9.30
2019-05-23T10:09:20.914Z,12.20
2019-05-23T10:10:20.930Z,10.90
2019-05-23T10:11:20.893Z,11.80
2019-05-23T10:12:22.567Z,10.30
2019-05-23T10:13:37.800Z,14.70
2019-05-23T10:14:21.853Z,13.00
2019-05-23T10:15:20.841Z,11.70
2019-05-23T10:16:20.835Z,11.80
2019-05-23T10:17:20.857Z,11.80
2019-05-23T10:18:20.810Z,11.50
2019-05-23T10:19:20.791Z,11.00
2019-05-23T10:20:20.781Z,12.70
2019-05-23T10:21:20.772Z,12.10
2019-05-23T10:22:20.753Z,12.00
2019-05-23T10:23:20.752Z,14.10
2019-05-23T10:24:20.734Z,12.90
2019-05-23T10:25:20.722Z,14.90
2019-05-23T10:26:20.702Z,12.50
2019-05-23T10:27:20.691Z,11.80
2019-05-23T10:28:20.702Z,13.40
2019-05-23T10:29:20.671Z,12.20
2019-05-23T10:30:20.661Z,11.20
2019-05-23T10:31:20.653Z,10.40
2019-05-23T10:32:20.631Z,9.40
2019-05-23T10:33:20.631Z,11.10
2019-05-23T10:34:20.616Z,13.20
2019-05-23T10:35:20.619Z,11.40
2019-05-23T10:36:20.580Z,12.30
2019-05-23T10:37:20.569Z,12.10
2019-05-23T10:38:20.568Z,12.10
2019-05-23T10:39:20.547Z,11.70
2019-05-23T10:40:20.532Z,12.00
2019-05-23T10:41:20.543Z,12.10
2019-05-23T10:42:20.523Z,12.00
2019-05-23T10:43:20.509Z,11.20
2019-05-23T10:44:20.479Z,14.00
2019-05-23T10:45:20.467Z,12.80
2019-05-23T10:46:20.468Z,11.50
2019-05-23T10:47:20.449Z,13.70
2019-05-23T10:48:20.450Z,12.70
2019-05-23T10:49:20.419Z,11.00
2019-05-23T10:50:20.426Z,11.30
2019-05-23T10:51:20.399Z,13.50
2019-05-23T10:52:20.389Z,12.20
2019-05-23T10:53:20.399Z,10.40
2019-05-23T10:54:20.383Z,11.90
2019-05-23T10:55:20.419Z,11.60
2019-05-23T10:56:21.128Z,13.10
2019-05-23T10:57:20.352Z,12.50
2019-05-23T10:58:20.343Z,15.60
2019-05-23T10:59:20.380Z,13.10
2019-05-23T11:00:20.299Z,13.70
2019-05-23T11:01:20.299Z,14.10
2019-05-23T11:02:20.298Z,14.40
2019-05-23T11:03:20.270Z,12.30
2019-05-23T11:04:20.270Z,14.30
2019-05-23T11:05:20.228Z,14.60
2019-05-23T11:06:20.218Z,12.60
2019-05-23T11:07:20.219Z,14.10
2019-05-23T11:08:20.219Z,13.80
2019-05-23T11:09:36.262Z,13.10
2019-05-23T11:10:21.185Z,10.70
2019-05-23T11:11:20.192Z,11.00
2019-05-23T11:12:20.169Z,13.10
2019-05-23T11:13:20.148Z,14.30
2019-05-23T11:14:20.163Z,14.20
2019-05-23T11:15:20.119Z,15.10
2019-05-23T11:16:20.168Z,13.90
2019-05-23T11:17:20.098Z,14.50
2019-05-23T11:18:20.130Z,14.80
2019-05-23T11:19:20.118Z,13.20
2019-05-23T11:20:20.050Z,16.50
2019-05-23T11:21:20.028Z,13.10
2019-05-23T11:22:20.021Z,15.30
2019-05-23T11:23:20.069Z,13.20
2019-05-23T11:24:20.024Z,12.70
2019-05-23T11:25:19.991Z,12.40
2019-05-23T11:26:19.979Z,13.30
2019-05-23T11:27:19.957Z,11.80
2019-05-23T11:28:19.968Z,12.50
2019-05-23T11:29:19.957Z,11.00
2019-05-23T11:30:19.929Z,12.80
2019-05-23T11:31:19.919Z,12.20
2019-05-23T11:32:20.499Z,10.80
2019-05-23T11:33:19.887Z,12.00
2019-05-23T11:34:19.911Z,12.10
2019-05-23T11:35:19.876Z,10.10
2019-05-23T11:36:34.593Z,10.00
2019-05-23T11:37:20.857Z,10.70
2019-05-23T11:38:19.835Z,12.50
2019-05-23T11:39:19.838Z,11.20
2019-05-23T11:40:19.808Z,12.50
2019-05-23T11:41:19.799Z,10.80
2019-05-23T11:42:19.786Z,11.70
2019-05-23T11:43:19.775Z,11.90
2019-05-23T11:44:19.766Z,15.50
2019-05-23T11:45:19.753Z,12.70
2019-05-23T11:46:19.746Z,11.80
2019-05-23T11:47:19.725Z,13.80
2019-05-23T11:48:19.706Z,11.30
2019-05-23T11:49:19.706Z,11.30
2019-05-23T11:50:19.686Z,11.90
2019-05-23T11:51:19.677Z,10.90
2019-05-23T11:52:19.665Z,10.50
2019-05-23T11:53:19.658Z,10.80
2019-05-23T11:54:19.669Z,12.50
2019-05-23T11:55:19.635Z,10.60
2019-05-23T11:56:19.625Z,10.80
2019-05-23T11:57:19.615Z,10.90
2019-05-23T11:58:19.635Z,11.10
2019-05-23T11:59:19.595Z,10.10
2019-05-23T12:00:19.624Z,10.70
2019-05-23T12:01:21.254Z,11.40
2019-05-23T12:02:19.554Z,10.70
2019-05-23T12:03:19.536Z,9.10
2019-05-23T12:04:19.545Z,10.30
2019-05-23T12:05:19.514Z,9.50
2019-05-23T12:06:19.506Z,9.90
2019-05-23T12:07:19.505Z,9.90
2019-05-23T12:08:19.475Z,13.00
2019-05-23T12:09:19.474Z,9.20
2019-05-23T12:10:19.454Z,11.70
2019-05-23T12:11:19.444Z,11.10
2019-05-23T12:12:19.433Z,10.10
2019-05-23T12:13:19.426Z,11.10
2019-05-23T12:14:19.423Z,11.10
2019-05-23T12:15:19.394Z,11.10
2019-05-23T12:16:19.392Z,11.40
2019-05-23T12:17:19.375Z,10.90
2019-05-23T12:18:19.364Z,10.10
2019-05-23T12:19:19.413Z,11.40
2019-05-23T12:20:19.344Z,9.30
2019-05-23T12:21:19.344Z,8.20
2019-05-23T12:22:19.333Z,8.70
2019-05-23T12:23:19.303Z,8.60
2019-05-23T12:24:19.329Z,10.30
2019-05-23T12:25:22.768Z,12.10
2019-05-23T12:26:19.325Z,11.00
2019-05-23T12:27:19.275Z,11.30
2019-05-23T12:28:19.266Z,9.60
2019-05-23T12:29:19.244Z,12.00
2019-05-23T12:30:19.233Z,12.10
2019-05-23T12:31:19.230Z,12.50
2019-05-23T12:32:19.213Z,11.00
2019-05-23T12:33:19.210Z,10.30
2019-05-23T12:34:19.193Z,9.30
2019-05-23T12:35:19.185Z,8.30
2019-05-23T12:36:19.173Z,8.20
2019-05-23T12:37:20.617Z,7.70
2019-05-23T12:38:19.153Z,7.70
2019-05-23T12:39:19.133Z,10.20
2019-05-23T12:40:19.145Z,7.30
2019-05-23T12:41:19.113Z,8.50
2019-05-23T12:42:19.103Z,7.60
2019-05-23T12:43:19.122Z,7.30
2019-05-23T12:44:19.213Z,7.20
2019-05-23T12:45:19.100Z,8.30
2019-05-23T12:46:19.073Z,6.90
2019-05-23T12:47:19.093Z,7.90
2019-05-23T12:48:19.023Z,7.90
2019-05-23T12:49:19.017Z,7.70
2019-05-23T12:50:19.016Z,9.80
2019-05-23T12:51:18.992Z,9.40
2019-05-23T12:52:18.983Z,9.50
2019-05-23T12:53:18.973Z,8.10
2019-05-23T12:54:18.967Z,6.10
2019-05-23T12:55:18.962Z,9.90
2019-05-23T12:56:18.933Z,9.10
2019-05-23T12:57:18.924Z,8.70
2019-05-23T12:58:18.931Z,9.30
2019-05-23T12:59:18.912Z,9.60
2019-05-23T13:00:18.908Z,6.60